sensor_id;sensor_type;location;lat;lon;timestamp;P1;durP1;ratioP1;P2;durP2;ratioP2
48203;SDS011;33994;50.998;5.864;2024-01-11T00:02:03;46.17;;;18.85;;
48203;SDS011;33994;50.998;5.864;2024-01-11T00:05:06;44.00;;;18.83;;
48203;SDS011;33994;50.998;5.864;2024-01-11T00:08:10;50.83;;;19.23;;
48203;SDS011;33994;50.998;5.864;2024-01-11T00:11:15;49.08;;;19.65;;
48203;SDS011;33994;50.998;5.864;2024-01-11T00:14:18;50.22;;;20.35;;
48203;SDS011;33994;50.998;5.864;2024-01-11T00:17:22;43.13;;;17.77;;
48203;SDS011;33994;50.998;5.864;2024-01-11T00:20:25;50.25;;;18.05;;
48203;SDS011;33994;50.998;5.864;2024-01-11T00:23:28;48.95;;;19.95;;
48203;SDS011;33994;50.998;5.864;2024-01-11T00:26:32;50.38;;;19.73;;
48203;SDS011;33994;50.998;5.864;2024-01-11T00:29:35;53.38;;;20.25;;
48203;SDS011;33994;50.998;5.864;2024-01-11T00:32:39;55.60;;;20.98;;
48203;SDS011;33994;50.998;5.864;2024-01-11T00:35:42;59.28;;;20.15;;
48203;SDS011;33994;50.998;5.864;2024-01-11T00:38:45;50.25;;;21.00;;
48203;SDS011;33994;50.998;5.864;2024-01-11T00:41:50;54.25;;;21.08;;
48203;SDS011;33994;50.998;5.864;2024-01-11T00:44:53;52.35;;;19.05;;
48203;SDS011;33994;50.998;5.864;2024-01-11T00:47:56;50.72;;;19.95;;
48203;SDS011;33994;50.998;5.864;2024-01-11T00:51:00;54.30;;;20.27;;
48203;SDS011;33994;50.998;5.864;2024-01-11T00:54:03;48.90;;;19.33;;
48203;SDS011;33994;50.998;5.864;2024-01-11T00:57:07;49.58;;;19.30;;
48203;SDS011;33994;50.998;5.864;2024-01-11T01:00:11;45.70;;;19.63;;
48203;SDS011;33994;50.998;5.864;2024-01-11T01:03:15;52.95;;;19.50;;
48203;SDS011;33994;50.998;5.864;2024-01-11T01:06:18;44.10;;;19.38;;
48203;SDS011;33994;50.998;5.864;2024-01-11T01:09:22;49.60;;;19.77;;
48203;SDS011;33994;50.998;5.864;2024-01-11T01:12:27;49.60;;;20.48;;
48203;SDS011;33994;50.998;5.864;2024-01-11T01:15:30;46.83;;;18.85;;
48203;SDS011;33994;50.998;5.864;2024-01-11T01:18:34;53.75;;;20.67;;
48203;SDS011;33994;50.998;5.864;2024-01-11T01:21:37;48.17;;;19.40;;
48203;SDS011;33994;50.998;5.864;2024-01-11T01:24:40;60.00;;;21.33;;
48203;SDS011;33994;50.998;5.864;2024-01-11T01:27:45;60.38;;;21.05;;
48203;SDS011;33994;50.998;5.864;2024-01-11T01:30:48;49.65;;;19.48;;
48203;SDS011;33994;50.998;5.864;2024-01-11T01:33:51;52.30;;;20.58;;
48203;SDS011;33994;50.998;5.864;2024-01-11T01:36:54;49.28;;;18.63;;
48203;SDS011;33994;50.998;5.864;2024-01-11T01:39:57;49.60;;;19.45;;
48203;SDS011;33994;50.998;5.864;2024-01-11T01:43:06;54.55;;;20.20;;
48203;SDS011;33994;50.998;5.864;2024-01-11T01:46:09;52.33;;;20.05;;
48203;SDS011;33994;50.998;5.864;2024-01-11T01:49:12;42.35;;;20.00;;
48203;SDS011;33994;50.998;5.864;2024-01-11T01:52:16;50.95;;;21.85;;
48203;SDS011;33994;50.998;5.864;2024-01-11T01:55:19;51.70;;;21.05;;
48203;SDS011;33994;50.998;5.864;2024-01-11T01:58:24;57.05;;;21.83;;
48203;SDS011;33994;50.998;5.864;2024-01-11T02:01:27;48.95;;;20.90;;
48203;SDS011;33994;50.998;5.864;2024-01-11T02:04:31;47.28;;;19.95;;
48203;SDS011;33994;50.998;5.864;2024-01-11T02:07:34;51.50;;;19.92;;
48203;SDS011;33994;50.998;5.864;2024-01-11T02:10:38;51.72;;;21.05;;
48203;SDS011;33994;50.998;5.864;2024-01-11T02:13:42;51.63;;;22.17;;
48203;SDS011;33994;50.998;5.864;2024-01-11T02:16:46;54.53;;;21.33;;
48203;SDS011;33994;50.998;5.864;2024-01-11T02:19:49;50.83;;;20.98;;
48203;SDS011;33994;50.998;5.864;2024-01-11T02:22:53;49.88;;;20.40;;
48203;SDS011;33994;50.998;5.864;2024-01-11T02:26:02;53.13;;;20.77;;
48203;SDS011;33994;50.998;5.864;2024-01-11T02:29:05;53.95;;;22.20;;
48203;SDS011;33994;50.998;5.864;2024-01-11T02:32:09;48.70;;;19.50;;
48203;SDS011;33994;50.998;5.864;2024-01-11T02:35:12;47.15;;;19.48;;
48203;SDS011;33994;50.998;5.864;2024-01-11T02:38:15;45.60;;;19.40;;
48203;SDS011;33994;50.998;5.864;2024-01-11T02:41:20;51.38;;;21.33;;
48203;SDS011;33994;50.998;5.864;2024-01-11T02:44:24;47.38;;;20.77;;
48203;SDS011;33994;50.998;5.864;2024-01-11T02:47:28;45.63;;;19.90;;
48203;SDS011;33994;50.998;5.864;2024-01-11T02:50:32;52.60;;;20.38;;
48203;SDS011;33994;50.998;5.864;2024-01-11T02:53:35;49.75;;;19.55;;
48203;SDS011;33994;50.998;5.864;2024-01-11T02:56:39;46.40;;;19.20;;
48203;SDS011;33994;50.998;5.864;2024-01-11T02:59:43;56.88;;;20.75;;
48203;SDS011;33994;50.998;5.864;2024-01-11T03:02:46;54.20;;;20.85;;
48203;SDS011;33994;50.998;5.864;2024-01-11T03:05:49;50.20;;;20.15;;
48203;SDS011;33994;50.998;5.864;2024-01-11T03:08:53;47.95;;;20.95;;
48203;SDS011;33994;50.998;5.864;2024-01-11T03:11:58;57.72;;;21.83;;
48203;SDS011;33994;50.998;5.864;2024-01-11T03:15:01;51.40;;;20.63;;
48203;SDS011;33994;50.998;5.864;2024-01-11T03:18:04;50.97;;;20.38;;
48203;SDS011;33994;50.998;5.864;2024-01-11T03:21:07;50.28;;;20.52;;
48203;SDS011;33994;50.998;5.864;2024-01-11T03:24:11;48.13;;;20.20;;
48203;SDS011;33994;50.998;5.864;2024-01-11T03:27:15;55.78;;;22.48;;
48203;SDS011;33994;50.998;5.864;2024-01-11T03:30:18;51.72;;;20.85;;
48203;SDS011;33994;50.998;5.864;2024-01-11T03:33:21;43.83;;;19.48;;
48203;SDS011;33994;50.998;5.864;2024-01-11T03:36:24;48.22;;;19.55;;
48203;SDS011;33994;50.998;5.864;2024-01-11T03:39:27;47.63;;;20.17;;
48203;SDS011;33994;50.998;5.864;2024-01-11T03:42:32;59.47;;;21.27;;
48203;SDS011;33994;50.998;5.864;2024-01-11T03:45:35;49.22;;;19.50;;
48203;SDS011;33994;50.998;5.864;2024-01-11T03:48:39;39.45;;;17.95;;
48203;SDS011;33994;50.998;5.864;2024-01-11T03:51:42;55.10;;;20.45;;
48203;SDS011;33994;50.998;5.864;2024-01-11T03:54:45;50.50;;;19.08;;
48203;SDS011;33994;50.998;5.864;2024-01-11T03:57:50;54.90;;;21.67;;
48203;SDS011;33994;50.998;5.864;2024-01-11T04:00:54;51.75;;;19.80;;
48203;SDS011;33994;50.998;5.864;2024-01-11T04:03:57;52.50;;;20.38;;
48203;SDS011;33994;50.998;5.864;2024-01-11T04:07:00;59.22;;;21.30;;
48203;SDS011;33994;50.998;5.864;2024-01-11T04:10:04;47.38;;;19.70;;
48203;SDS011;33994;50.998;5.864;2024-01-11T04:13:11;51.58;;;19.95;;
48203;SDS011;33994;50.998;5.864;2024-01-11T04:16:14;51.72;;;21.10;;
48203;SDS011;33994;50.998;5.864;2024-01-11T04:19:17;47.42;;;21.58;;
48203;SDS011;33994;50.998;5.864;2024-01-11T04:22:20;50.97;;;20.13;;
48203;SDS011;33994;50.998;5.864;2024-01-11T04:25:23;48.95;;;21.17;;
48203;SDS011;33994;50.998;5.864;2024-01-11T04:28:28;47.17;;;20.70;;
48203;SDS011;33994;50.998;5.864;2024-01-11T04:31:31;53.15;;;20.58;;
48203;SDS011;33994;50.998;5.864;2024-01-11T04:34:34;55.25;;;21.02;;
48203;SDS011;33994;50.998;5.864;2024-01-11T04:37:38;50.42;;;20.17;;
48203;SDS011;33994;50.998;5.864;2024-01-11T04:40:41;49.00;;;20.92;;
48203;SDS011;33994;50.998;5.864;2024-01-11T04:43:46;47.25;;;21.08;;
48203;SDS011;33994;50.998;5.864;2024-01-11T04:46:49;53.70;;;22.13;;
48203;SDS011;33994;50.998;5.864;2024-01-11T04:49:52;58.13;;;21.35;;
48203;SDS011;33994;50.998;5.864;2024-01-11T04:52:55;51.45;;;21.48;;
48203;SDS011;33994;50.998;5.864;2024-01-11T04:55:58;48.90;;;21.25;;
48203;SDS011;33994;50.998;5.864;2024-01-11T04:59:03;55.80;;;22.88;;
48203;SDS011;33994;50.998;5.864;2024-01-11T05:02:06;55.30;;;22.30;;
48203;SDS011;33994;50.998;5.864;2024-01-11T05:05:09;59.30;;;21.33;;
48203;SDS011;33994;50.998;5.864;2024-01-11T05:08:12;54.00;;;23.30;;
48203;SDS011;33994;50.998;5.864;2024-01-11T05:11:16;60.85;;;22.88;;
48203;SDS011;33994;50.998;5.864;2024-01-11T05:14:20;51.92;;;22.67;;
48203;SDS011;33994;50.998;5.864;2024-01-11T05:17:24;52.85;;;21.83;;
48203;SDS011;33994;50.998;5.864;2024-01-11T05:20:27;51.47;;;22.17;;
48203;SDS011;33994;50.998;5.864;2024-01-11T05:23:30;52.55;;;22.15;;
48203;SDS011;33994;50.998;5.864;2024-01-11T05:26:33;52.20;;;21.25;;
48203;SDS011;33994;50.998;5.864;2024-01-11T05:29:38;53.08;;;22.75;;
48203;SDS011;33994;50.998;5.864;2024-01-11T05:32:41;56.58;;;23.20;;
48203;SDS011;33994;50.998;5.864;2024-01-11T05:35:44;60.15;;;23.67;;
48203;SDS011;33994;50.998;5.864;2024-01-11T05:38:48;70.45;;;24.77;;
48203;SDS011;33994;50.998;5.864;2024-01-11T05:41:51;64.05;;;25.05;;
48203;SDS011;33994;50.998;5.864;2024-01-11T05:44:55;63.22;;;23.73;;
48203;SDS011;33994;50.998;5.864;2024-01-11T05:47:59;61.00;;;23.63;;
48203;SDS011;33994;50.998;5.864;2024-01-11T05:51:02;66.18;;;24.73;;
48203;SDS011;33994;50.998;5.864;2024-01-11T05:54:05;61.92;;;24.55;;
48203;SDS011;33994;50.998;5.864;2024-01-11T05:57:08;59.47;;;25.50;;
48203;SDS011;33994;50.998;5.864;2024-01-11T06:00:13;69.85;;;26.15;;
48203;SDS011;33994;50.998;5.864;2024-01-11T06:03:17;59.83;;;25.50;;
48203;SDS011;33994;50.998;5.864;2024-01-11T06:06:20;59.25;;;25.08;;
48203;SDS011;33994;50.998;5.864;2024-01-11T06:09:23;63.97;;;25.92;;
48203;SDS011;33994;50.998;5.864;2024-01-11T06:12:26;64.15;;;24.75;;
48203;SDS011;33994;50.998;5.864;2024-01-11T06:15:31;65.82;;;25.23;;
48203;SDS011;33994;50.998;5.864;2024-01-11T06:18:34;65.65;;;25.50;;
48203;SDS011;33994;50.998;5.864;2024-01-11T06:21:38;59.95;;;26.02;;
48203;SDS011;33994;50.998;5.864;2024-01-11T06:24:41;63.30;;;25.67;;
48203;SDS011;33994;50.998;5.864;2024-01-11T06:27:44;61.83;;;26.13;;
48203;SDS011;33994;50.998;5.864;2024-01-11T06:30:49;62.92;;;26.58;;
48203;SDS011;33994;50.998;5.864;2024-01-11T06:33:52;64.45;;;26.50;;
48203;SDS011;33994;50.998;5.864;2024-01-11T06:36:56;61.55;;;25.60;;
48203;SDS011;33994;50.998;5.864;2024-01-11T06:39:59;69.70;;;24.95;;
48203;SDS011;33994;50.998;5.864;2024-01-11T06:43:02;59.40;;;25.25;;
48203;SDS011;33994;50.998;5.864;2024-01-11T06:46:06;60.60;;;24.33;;
48203;SDS011;33994;50.998;5.864;2024-01-11T06:49:10;62.58;;;25.27;;
48203;SDS011;33994;50.998;5.864;2024-01-11T06:52:13;62.38;;;26.00;;
48203;SDS011;33994;50.998;5.864;2024-01-11T06:55:16;64.20;;;25.02;;
48203;SDS011;33994;50.998;5.864;2024-01-11T06:58:20;67.28;;;26.10;;
48203;SDS011;33994;50.998;5.864;2024-01-11T07:01:24;65.60;;;27.27;;
48203;SDS011;33994;50.998;5.864;2024-01-11T07:04:27;61.53;;;26.20;;
48203;SDS011;33994;50.998;5.864;2024-01-11T07:07:30;67.35;;;25.30;;
48203;SDS011;33994;50.998;5.864;2024-01-11T07:10:33;65.60;;;25.58;;
48203;SDS011;33994;50.998;5.864;2024-01-11T07:13:37;65.20;;;24.40;;
48203;SDS011;33994;50.998;5.864;2024-01-11T07:16:41;67.60;;;25.60;;
48203;SDS011;33994;50.998;5.864;2024-01-11T07:19:44;60.40;;;25.02;;
48203;SDS011;33994;50.998;5.864;2024-01-11T07:22:48;61.50;;;25.27;;
48203;SDS011;33994;50.998;5.864;2024-01-11T07:25:51;61.75;;;26.52;;
48203;SDS011;33994;50.998;5.864;2024-01-11T07:28:54;64.55;;;26.63;;
48203;SDS011;33994;50.998;5.864;2024-01-11T07:31:59;58.78;;;26.25;;
48203;SDS011;33994;50.998;5.864;2024-01-11T07:35:02;59.10;;;25.77;;
48203;SDS011;33994;50.998;5.864;2024-01-11T07:38:06;64.60;;;25.50;;
48203;SDS011;33994;50.998;5.864;2024-01-11T07:41:09;67.40;;;26.55;;
48203;SDS011;33994;50.998;5.864;2024-01-11T07:44:12;73.00;;;28.20;;
48203;SDS011;33994;50.998;5.864;2024-01-11T07:47:17;70.15;;;28.15;;
48203;SDS011;33994;50.998;5.864;2024-01-11T07:50:20;64.97;;;27.88;;
48203;SDS011;33994;50.998;5.864;2024-01-11T07:53:23;67.85;;;26.02;;
48203;SDS011;33994;50.998;5.864;2024-01-11T07:56:26;95.55;;;28.60;;
48203;SDS011;33994;50.998;5.864;2024-01-11T07:59:32;75.28;;;27.73;;
48203;SDS011;33994;50.998;5.864;2024-01-11T08:02:37;84.85;;;28.25;;
48203;SDS011;33994;50.998;5.864;2024-01-11T08:05:40;79.68;;;28.55;;
48203;SDS011;33994;50.998;5.864;2024-01-11T08:08:43;70.78;;;26.83;;
48203;SDS011;33994;50.998;5.864;2024-01-11T08:11:46;74.28;;;26.42;;
48203;SDS011;33994;50.998;5.864;2024-01-11T08:14:49;73.28;;;26.45;;
48203;SDS011;33994;50.998;5.864;2024-01-11T08:17:54;65.50;;;26.42;;
48203;SDS011;33994;50.998;5.864;2024-01-11T08:20:57;69.95;;;28.48;;
48203;SDS011;33994;50.998;5.864;2024-01-11T08:24:00;63.30;;;25.85;;
48203;SDS011;33994;50.998;5.864;2024-01-11T08:27:04;69.03;;;28.20;;
48203;SDS011;33994;50.998;5.864;2024-01-11T08:30:07;72.70;;;29.20;;
48203;SDS011;33994;50.998;5.864;2024-01-11T08:33:11;73.70;;;29.20;;
48203;SDS011;33994;50.998;5.864;2024-01-11T08:36:14;66.07;;;27.90;;
48203;SDS011;33994;50.998;5.864;2024-01-11T08:39:18;66.40;;;26.38;;
48203;SDS011;33994;50.998;5.864;2024-01-11T08:42:21;70.35;;;27.48;;
48203;SDS011;33994;50.998;5.864;2024-01-11T08:45:24;70.03;;;27.38;;
48203;SDS011;33994;50.998;5.864;2024-01-11T08:48:29;67.63;;;26.98;;
48203;SDS011;33994;50.998;5.864;2024-01-11T08:51:32;64.78;;;27.77;;
48203;SDS011;33994;50.998;5.864;2024-01-11T08:54:35;65.38;;;27.35;;
48203;SDS011;33994;50.998;5.864;2024-01-11T08:57:38;73.00;;;29.30;;
48203;SDS011;33994;50.998;5.864;2024-01-11T09:00:42;78.85;;;28.55;;
48203;SDS011;33994;50.998;5.864;2024-01-11T09:03:46;67.95;;;27.67;;
48203;SDS011;33994;50.998;5.864;2024-01-11T09:06:49;67.40;;;28.65;;
48203;SDS011;33994;50.998;5.864;2024-01-11T09:09:53;74.10;;;28.55;;
48203;SDS011;33994;50.998;5.864;2024-01-11T09:12:56;63.50;;;26.98;;
48203;SDS011;33994;50.998;5.864;2024-01-11T09:15:59;65.15;;;26.45;;
48203;SDS011;33994;50.998;5.864;2024-01-11T09:19:04;65.47;;;26.45;;
48203;SDS011;33994;50.998;5.864;2024-01-11T09:22:07;69.07;;;29.02;;
48203;SDS011;33994;50.998;5.864;2024-01-11T09:25:10;73.55;;;27.17;;
48203;SDS011;33994;50.998;5.864;2024-01-11T09:28:14;72.32;;;28.98;;
48203;SDS011;33994;50.998;5.864;2024-01-11T09:31:17;66.50;;;27.45;;
48203;SDS011;33994;50.998;5.864;2024-01-11T09:34:21;65.80;;;27.50;;
48203;SDS011;33994;50.998;5.864;2024-01-11T09:37:24;67.95;;;27.45;;
48203;SDS011;33994;50.998;5.864;2024-01-11T09:40:28;72.28;;;28.52;;
48203;SDS011;33994;50.998;5.864;2024-01-11T09:43:31;66.00;;;28.75;;
48203;SDS011;33994;50.998;5.864;2024-01-11T09:46:36;72.55;;;29.10;;
48203;SDS011;33994;50.998;5.864;2024-01-11T09:49:40;67.13;;;28.05;;
48203;SDS011;33994;50.998;5.864;2024-01-11T09:52:46;74.65;;;29.75;;
48203;SDS011;33994;50.998;5.864;2024-01-11T09:55:50;68.20;;;28.60;;
48203;SDS011;33994;50.998;5.864;2024-01-11T09:58:53;74.70;;;28.25;;
48203;SDS011;33994;50.998;5.864;2024-01-11T10:01:57;67.63;;;28.73;;
48203;SDS011;33994;50.998;5.864;2024-01-11T10:05:02;70.43;;;29.38;;
48203;SDS011;33994;50.998;5.864;2024-01-11T10:08:06;80.50;;;31.02;;
48203;SDS011;33994;50.998;5.864;2024-01-11T10:11:09;73.88;;;31.27;;
48203;SDS011;33994;50.998;5.864;2024-01-11T10:14:12;74.03;;;29.58;;
48203;SDS011;33994;50.998;5.864;2024-01-11T10:17:16;64.88;;;29.60;;
48203;SDS011;33994;50.998;5.864;2024-01-11T10:20:20;71.63;;;30.05;;
48203;SDS011;33994;50.998;5.864;2024-01-11T10:23:24;69.57;;;28.65;;
48203;SDS011;33994;50.998;5.864;2024-01-11T10:26:27;79.03;;;30.05;;
48203;SDS011;33994;50.998;5.864;2024-01-11T10:29:33;75.07;;;31.08;;
48203;SDS011;33994;50.998;5.864;2024-01-11T10:32:36;71.00;;;30.40;;
48203;SDS011;33994;50.998;5.864;2024-01-11T10:35:41;73.03;;;29.40;;
48203;SDS011;33994;50.998;5.864;2024-01-11T10:38:44;72.85;;;29.10;;
48203;SDS011;33994;50.998;5.864;2024-01-11T10:41:51;81.15;;;31.27;;
48203;SDS011;33994;50.998;5.864;2024-01-11T10:44:54;70.90;;;27.85;;
48203;SDS011;33994;50.998;5.864;2024-01-11T10:48:00;68.55;;;30.75;;
48203;SDS011;33994;50.998;5.864;2024-01-11T10:51:07;77.43;;;30.67;;
48203;SDS011;33994;50.998;5.864;2024-01-11T10:54:11;74.07;;;29.50;;
48203;SDS011;33994;50.998;5.864;2024-01-11T10:57:15;83.43;;;30.05;;
48203;SDS011;33994;50.998;5.864;2024-01-11T11:00:19;70.75;;;28.52;;
48203;SDS011;33994;50.998;5.864;2024-01-11T11:03:23;73.28;;;30.25;;
48203;SDS011;33994;50.998;5.864;2024-01-11T11:06:29;68.57;;;29.45;;
48203;SDS011;33994;50.998;5.864;2024-01-11T11:09:34;71.28;;;31.65;;
48203;SDS011;33994;50.998;5.864;2024-01-11T11:12:37;78.30;;;31.85;;
48203;SDS011;33994;50.998;5.864;2024-01-11T11:15:44;69.13;;;30.63;;
48203;SDS011;33994;50.998;5.864;2024-01-11T11:18:48;81.20;;;32.40;;
48203;SDS011;33994;50.998;5.864;2024-01-11T11:21:56;75.70;;;32.75;;
48203;SDS011;33994;50.998;5.864;2024-01-11T11:25:02;72.63;;;31.20;;
48203;SDS011;33994;50.998;5.864;2024-01-11T11:28:06;73.97;;;32.15;;
48203;SDS011;33994;50.998;5.864;2024-01-11T11:31:10;70.68;;;31.17;;
48203;SDS011;33994;50.998;5.864;2024-01-11T11:34:14;66.93;;;29.48;;
48203;SDS011;33994;50.998;5.864;2024-01-11T11:37:23;73.22;;;31.33;;
48203;SDS011;33994;50.998;5.864;2024-01-11T11:40:31;69.47;;;31.90;;
48203;SDS011;33994;50.998;5.864;2024-01-11T11:43:35;66.78;;;29.02;;
48203;SDS011;33994;50.998;5.864;2024-01-11T11:46:38;70.00;;;29.38;;
48203;SDS011;33994;50.998;5.864;2024-01-11T11:53:08;62.00;;;28.92;;
48203;SDS011;33994;50.998;5.864;2024-01-11T11:56:14;65.28;;;27.45;;
48203;SDS011;33994;50.998;5.864;2024-01-11T11:59:19;62.58;;;27.40;;
48203;SDS011;33994;50.998;5.864;2024-01-11T12:02:22;63.50;;;27.60;;
48203;SDS011;33994;50.998;5.864;2024-01-11T12:05:27;63.90;;;26.63;;
48203;SDS011;33994;50.998;5.864;2024-01-11T12:08:32;59.63;;;27.13;;
48203;SDS011;33994;50.998;5.864;2024-01-11T12:11:35;58.80;;;26.85;;
48203;SDS011;33994;50.998;5.864;2024-01-11T12:14:38;63.90;;;27.48;;
48203;SDS011;33994;50.998;5.864;2024-01-11T12:17:41;64.57;;;27.23;;
48203;SDS011;33994;50.998;5.864;2024-01-11T12:20:45;58.80;;;25.83;;
48203;SDS011;33994;50.998;5.864;2024-01-11T12:23:49;56.03;;;24.35;;
48203;SDS011;33994;50.998;5.864;2024-01-11T12:26:52;56.15;;;25.27;;
48203;SDS011;33994;50.998;5.864;2024-01-11T12:29:56;59.65;;;25.45;;
48203;SDS011;33994;50.998;5.864;2024-01-11T12:32:59;58.40;;;23.90;;
48203;SDS011;33994;50.998;5.864;2024-01-11T12:36:04;52.72;;;24.33;;
48203;SDS011;33994;50.998;5.864;2024-01-11T12:39:10;52.42;;;24.13;;
48203;SDS011;33994;50.998;5.864;2024-01-11T12:42:13;59.75;;;24.95;;
48203;SDS011;33994;50.998;5.864;2024-01-11T12:45:17;56.45;;;24.50;;
48203;SDS011;33994;50.998;5.864;2024-01-11T12:48:20;56.30;;;24.02;;
48203;SDS011;33994;50.998;5.864;2024-01-11T12:51:23;56.40;;;24.58;;
48203;SDS011;33994;50.998;5.864;2024-01-11T12:54:30;55.05;;;24.15;;
48203;SDS011;33994;50.998;5.864;2024-01-11T12:57:35;55.67;;;23.25;;
48203;SDS011;33994;50.998;5.864;2024-01-11T13:00:38;53.72;;;23.80;;
48203;SDS011;33994;50.998;5.864;2024-01-11T13:03:43;54.67;;;24.30;;
48203;SDS011;33994;50.998;5.864;2024-01-11T13:06:47;53.55;;;23.63;;
48203;SDS011;33994;50.998;5.864;2024-01-11T13:09:52;54.70;;;22.08;;
48203;SDS011;33994;50.998;5.864;2024-01-11T13:12:55;48.60;;;22.73;;
48203;SDS011;33994;50.998;5.864;2024-01-11T13:16:01;52.92;;;21.60;;
48203;SDS011;33994;50.998;5.864;2024-01-11T13:19:04;53.47;;;22.05;;
48203;SDS011;33994;50.998;5.864;2024-01-11T13:22:07;50.97;;;23.67;;
48203;SDS011;33994;50.998;5.864;2024-01-11T13:25:12;53.88;;;23.88;;
48203;SDS011;33994;50.998;5.864;2024-01-11T13:28:15;52.08;;;22.52;;
48203;SDS011;33994;50.998;5.864;2024-01-11T13:31:18;56.53;;;24.40;;
48203;SDS011;33994;50.998;5.864;2024-01-11T13:34:22;54.22;;;22.90;;
48203;SDS011;33994;50.998;5.864;2024-01-11T13:37:25;57.38;;;25.17;;
48203;SDS011;33994;50.998;5.864;2024-01-11T13:40:29;51.35;;;21.80;;
48203;SDS011;33994;50.998;5.864;2024-01-11T13:43:32;58.10;;;22.77;;
48203;SDS011;33994;50.998;5.864;2024-01-11T13:46:36;54.55;;;23.13;;
48203;SDS011;33994;50.998;5.864;2024-01-11T13:49:39;49.40;;;20.77;;
48203;SDS011;33994;50.998;5.864;2024-01-11T13:52:43;53.80;;;22.98;;
48203;SDS011;33994;50.998;5.864;2024-01-11T13:55:48;49.45;;;22.05;;
48203;SDS011;33994;50.998;5.864;2024-01-11T13:58:51;43.55;;;20.83;;
48203;SDS011;33994;50.998;5.864;2024-01-11T14:01:55;44.83;;;21.67;;
48203;SDS011;33994;50.998;5.864;2024-01-11T14:04:58;48.03;;;20.08;;
48203;SDS011;33994;50.998;5.864;2024-01-11T14:08:01;47.15;;;20.83;;
48203;SDS011;33994;50.998;5.864;2024-01-11T14:11:06;49.67;;;20.65;;
48203;SDS011;33994;50.998;5.864;2024-01-11T14:14:09;42.83;;;19.73;;
48203;SDS011;33994;50.998;5.864;2024-01-11T14:17:12;45.92;;;21.02;;
48203;SDS011;33994;50.998;5.864;2024-01-11T14:20:16;44.03;;;19.98;;
48203;SDS011;33994;50.998;5.864;2024-01-11T14:23:19;44.42;;;20.27;;
48203;SDS011;33994;50.998;5.864;2024-01-11T14:26:23;44.03;;;20.25;;
48203;SDS011;33994;50.998;5.864;2024-01-11T14:29:26;38.85;;;18.90;;
48203;SDS011;33994;50.998;5.864;2024-01-11T14:32:29;37.17;;;18.92;;
48203;SDS011;33994;50.998;5.864;2024-01-11T14:35:33;37.78;;;18.23;;
48203;SDS011;33994;50.998;5.864;2024-01-11T14:38:36;44.15;;;19.05;;
48203;SDS011;33994;50.998;5.864;2024-01-11T14:41:41;42.08;;;18.50;;
48203;SDS011;33994;50.998;5.864;2024-01-11T14:44:44;41.80;;;18.45;;
48203;SDS011;33994;50.998;5.864;2024-01-11T14:47:47;44.03;;;18.83;;
48203;SDS011;33994;50.998;5.864;2024-01-11T14:50:50;41.80;;;18.90;;
48203;SDS011;33994;50.998;5.864;2024-01-11T14:53:53;41.83;;;17.17;;
48203;SDS011;33994;50.998;5.864;2024-01-11T14:56:58;45.60;;;20.17;;
48203;SDS011;33994;50.998;5.864;2024-01-11T15:00:01;39.33;;;16.85;;
48203;SDS011;33994;50.998;5.864;2024-01-11T15:03:04;36.72;;;17.30;;
48203;SDS011;33994;50.998;5.864;2024-01-11T15:06:08;37.85;;;17.13;;
48203;SDS011;33994;50.998;5.864;2024-01-11T15:09:11;35.83;;;17.48;;
48203;SDS011;33994;50.998;5.864;2024-01-11T15:12:16;34.35;;;16.23;;
48203;SDS011;33994;50.998;5.864;2024-01-11T15:15:19;40.35;;;17.42;;
48203;SDS011;33994;50.998;5.864;2024-01-11T15:18:22;41.92;;;17.15;;
48203;SDS011;33994;50.998;5.864;2024-01-11T15:21:25;33.47;;;16.70;;
48203;SDS011;33994;50.998;5.864;2024-01-11T15:24:28;37.95;;;17.48;;
48203;SDS011;33994;50.998;5.864;2024-01-11T15:27:33;46.60;;;18.98;;
48203;SDS011;33994;50.998;5.864;2024-01-11T15:30:36;40.97;;;19.27;;
48203;SDS011;33994;50.998;5.864;2024-01-11T15:33:39;38.92;;;17.60;;
48203;SDS011;33994;50.998;5.864;2024-01-11T15:36:43;38.97;;;18.50;;
48203;SDS011;33994;50.998;5.864;2024-01-11T15:39:46;42.30;;;18.67;;
48203;SDS011;33994;50.998;5.864;2024-01-11T15:42:51;48.20;;;18.77;;
48203;SDS011;33994;50.998;5.864;2024-01-11T15:45:54;44.00;;;17.85;;
48203;SDS011;33994;50.998;5.864;2024-01-11T15:48:58;38.13;;;17.30;;
48203;SDS011;33994;50.998;5.864;2024-01-11T15:52:00;37.58;;;16.73;;
48203;SDS011;33994;50.998;5.864;2024-01-11T15:55:04;36.65;;;16.92;;
48203;SDS011;33994;50.998;5.864;2024-01-11T15:58:09;41.15;;;18.77;;
48203;SDS011;33994;50.998;5.864;2024-01-11T16:01:12;40.72;;;19.50;;
48203;SDS011;33994;50.998;5.864;2024-01-11T16:04:15;39.55;;;18.08;;
48203;SDS011;33994;50.998;5.864;2024-01-11T16:07:18;37.40;;;17.67;;
48203;SDS011;33994;50.998;5.864;2024-01-11T16:10:22;43.67;;;18.55;;
48203;SDS011;33994;50.998;5.864;2024-01-11T16:13:26;34.80;;;16.98;;
48203;SDS011;33994;50.998;5.864;2024-01-11T16:16:30;43.88;;;18.52;;
48203;SDS011;33994;50.998;5.864;2024-01-11T16:19:35;39.70;;;19.42;;
48203;SDS011;33994;50.998;5.864;2024-01-11T16:22:38;40.10;;;19.48;;
48203;SDS011;33994;50.998;5.864;2024-01-11T16:25:41;43.45;;;19.48;;
48203;SDS011;33994;50.998;5.864;2024-01-11T16:28:46;37.05;;;15.80;;
48203;SDS011;33994;50.998;5.864;2024-01-11T16:31:49;30.48;;;14.90;;
48203;SDS011;33994;50.998;5.864;2024-01-11T16:34:52;28.75;;;13.48;;
48203;SDS011;33994;50.998;5.864;2024-01-11T16:37:56;25.30;;;12.20;;
48203;SDS011;33994;50.998;5.864;2024-01-11T16:40:59;29.45;;;12.82;;
48203;SDS011;33994;50.998;5.864;2024-01-11T16:44:04;29.85;;;12.77;;
48203;SDS011;33994;50.998;5.864;2024-01-11T16:47:07;32.20;;;14.15;;
48203;SDS011;33994;50.998;5.864;2024-01-11T16:50:10;31.67;;;14.35;;
48203;SDS011;33994;50.998;5.864;2024-01-11T16:53:14;27.95;;;12.77;;
48203;SDS011;33994;50.998;5.864;2024-01-11T16:56:17;26.05;;;11.77;;
48203;SDS011;33994;50.998;5.864;2024-01-11T16:59:21;29.08;;;12.68;;
48203;SDS011;33994;50.998;5.864;2024-01-11T17:02:24;32.42;;;13.70;;
48203;SDS011;33994;50.998;5.864;2024-01-11T17:05:28;32.78;;;12.63;;
48203;SDS011;33994;50.998;5.864;2024-01-11T17:08:31;28.88;;;12.32;;
48203;SDS011;33994;50.998;5.864;2024-01-11T17:11:34;28.13;;;13.30;;
48203;SDS011;33994;50.998;5.864;2024-01-11T17:14:42;28.42;;;13.25;;
48203;SDS011;33994;50.998;5.864;2024-01-11T17:17:45;33.03;;;11.50;;
48203;SDS011;33994;50.998;5.864;2024-01-11T17:20:49;30.98;;;12.77;;
48203;SDS011;33994;50.998;5.864;2024-01-11T17:23:52;28.92;;;12.05;;
48203;SDS011;33994;50.998;5.864;2024-01-11T17:26:55;28.38;;;12.88;;
48203;SDS011;33994;50.998;5.864;2024-01-11T17:29:59;29.30;;;13.43;;
48203;SDS011;33994;50.998;5.864;2024-01-11T17:33:03;26.88;;;12.80;;
48203;SDS011;33994;50.998;5.864;2024-01-11T17:36:06;35.17;;;14.13;;
48203;SDS011;33994;50.998;5.864;2024-01-11T17:39:10;28.55;;;13.55;;
48203;SDS011;33994;50.998;5.864;2024-01-11T17:42:14;30.15;;;12.77;;
48203;SDS011;33994;50.998;5.864;2024-01-11T17:45:18;28.60;;;14.68;;
48203;SDS011;33994;50.998;5.864;2024-01-11T17:48:21;28.75;;;14.00;;
48203;SDS011;33994;50.998;5.864;2024-01-11T17:51:24;32.10;;;13.48;;
48203;SDS011;33994;50.998;5.864;2024-01-11T17:54:28;30.38;;;14.30;;
48203;SDS011;33994;50.998;5.864;2024-01-11T17:57:31;28.73;;;14.65;;